• Join FlightAware (Why Join?)
  • Login
  • US Flag 
06:52PM EDT


 

Airport Tracker/Info


-or-


 

Live Flight TrackerFlight Track Log ✈ ASQ5128 ✈ 27-Jun-2013 ✈ KMGM - KATL

Flight Track Log - Related Links

Times and Time Zones

All times are in EDT time to prevent confusion due to time zone crossing. See the ASQ5128 flight status page for this flight to view local times or setup timezone preferences in your user account.

Time Position Orientation Groundspeed Altitude Reporting Facility
EDT Latitude Longitude Course Direction KTS MPH feet Rate Location/Type
06:33AM 32.2900 -86.3828 360° North 37 43 21,000  Level Atlanta Center
06:35AM 32.2900 -86.3828 90° East 37 43 21,000 -5,040 Level Atlanta Center
06:36AM 32.3461 -86.2858 56° Northeast 349 402 4,000 -5,760 Descending Atlanta Center
06:37AM 32.3956 -86.2108 52° Northeast 306 352 7,200 3,300 Climbing Atlanta Center
06:38AM 32.4469 -86.1358 51° Northeast 294 338 10,600 2,820 Climbing Atlanta Center
06:39AM 32.4961 -86.0508 56° Northeast 303 349 12,900 2,460 Climbing Atlanta Center
06:40AM 32.5561 -85.9658 50° Northeast 319 367 15,600 2,400 Climbing Atlanta Center
06:41AM 32.6158 -85.8761 52° Northeast 336 387 17,800 2,220 Climbing Atlanta Center
06:42AM 32.6778 -85.7786 53° Northeast 348 400 20,100 1,560 Climbing Atlanta Center
06:43AM 32.7417 -85.6811 52° Northeast 361 415 21,000 420 Climbing Atlanta Center
06:44AM 32.8100 -85.5786 52° Northeast 372 428 21,000  Level Atlanta Center
06:45AM 32.8736 -85.4783 53° Northeast 382 440 21,000  Level Atlanta Center
06:46AM 32.9267 -85.3975 52° Northeast 387 445 21,000 -660 Level Atlanta Center
06:47AM 32.9947 -85.2872 54° Northeast 387 445 19,700 -1,800 Descending Atlanta Center
06:48AM 33.0603 -85.1964 49° Northeast 377 434 17,500 -2,100 Descending Atlanta Center
06:49AM 33.1281 -85.1053 48° Northeast 361 415 15,500 -1,800 Descending Atlanta Center
06:50AM 33.1975 -85.0169 47° Northeast 356 410 14,000 -1,200 Descending Atlanta Center
06:51AM 33.2692 -84.9183 49° Northeast 374 430 13,100 -1,020 Descending Atlanta Center
06:52AM 33.3494 -84.8122 48° Northeast 390 449 12,000 -600 Descending Atlanta Center
06:53AM 33.4231 -84.7108 49° Northeast 390 449 12,000 -60 Level Atlanta Center
06:54AM 33.4861 -84.6292 47° Northeast 363 418 11,900  Descending Atlanta Center
06:55AM 33.5386 -84.5597 48° Northeast 300 345 12,000 -960 Climbing Atlanta Center
06:56AM 33.5431 -84.4700 87° East 250 288 10,000 -2,100 Descending Atlanta Center
06:57AM 33.5453 -84.3803 88° East 255 293 7,800 -2,460 Descending Atlanta Center
06:59AM 33.5500 -84.2500 87° East 256 295 3,800 -1,200 Descending Atlanta TRACON
07:01AM 33.5333 -84.1033 90° East  Level FlightAware Approximate
07:02AM 33.6333 -84.3167 90° East 143 165 2,500  Level Atlanta TRACON
07:03AM 33.6333 -84.3667 270° West 109 125 1,900 -600 Descending Atlanta TRACON
07:04AM 33.6333 -84.4000 270° West 123 142 1,300 -600 Descending Atlanta TRACON
07:06AM 33.6333 -84.4167 301° West  Level FlightAware Approximate
07:13AM 33.6367 -84.4279 301° West  Level Estimated